createdAt,value
2019-02-06T00:01:07.669Z,38.80
2019-02-06T00:03:36.712Z,39.40
2019-02-06T00:06:06.074Z,53.20
2019-02-06T00:08:35.132Z,37.80
2019-02-06T00:11:04.400Z,40.37
2019-02-06T00:13:33.693Z,39.97
2019-02-06T00:16:02.675Z,42.13
2019-02-06T00:18:31.887Z,41.93
2019-02-06T00:21:00.797Z,62.77
2019-02-06T00:23:29.768Z,42.90
2019-02-06T00:25:58.681Z,53.00
2019-02-06T00:28:27.948Z,86.50
2019-02-06T00:30:57.023Z,48.10
2019-02-06T00:33:25.957Z,49.00
2019-02-06T00:35:54.929Z,71.93
2019-02-06T00:38:23.950Z,47.90
2019-02-06T00:40:53.121Z,44.07
2019-02-06T00:43:22.113Z,43.43
2019-02-06T00:45:51.094Z,56.07
2019-02-06T00:48:20.002Z,56.93
2019-02-06T00:50:48.982Z,67.57
2019-02-06T00:53:17.980Z,49.97
2019-02-06T00:55:46.953Z,51.83
2019-02-06T00:58:16.200Z,44.87
2019-02-06T01:00:45.105Z,47.60
2019-02-06T01:03:14.920Z,47.20
2019-02-06T01:05:43.967Z,44.40
2019-02-06T01:08:13.489Z,51.40
2019-02-06T01:10:42.473Z,43.87
2019-02-06T01:13:11.461Z,41.00
2019-02-06T01:15:40.744Z,37.43
2019-02-06T01:18:10.088Z,41.87
2019-02-06T01:20:39.096Z,36.47
2019-02-06T01:23:08.181Z,44.00
2019-02-06T01:25:37.077Z,40.93
2019-02-06T01:28:06.080Z,38.53
2019-02-06T01:30:42.910Z,42.90
2019-02-06T01:33:11.744Z,38.13
2019-02-06T01:35:49.536Z,31.90
2019-02-06T01:38:11.376Z,42.90
2019-02-06T01:40:40.373Z,31.07
2019-02-06T01:43:09.349Z,31.97
2019-02-06T01:45:38.793Z,33.50
2019-02-06T01:48:08.117Z,40.83
2019-02-06T01:50:37.027Z,34.83
2019-02-06T01:53:06.008Z,27.53
2019-02-06T01:55:35.006Z,31.63
2019-02-06T01:58:04.101Z,28.87
2019-02-06T02:00:33.385Z,33.07
2019-02-06T02:03:02.385Z,29.37
2019-02-06T02:05:31.403Z,33.93
2019-02-06T02:08:00.732Z,39.97
2019-02-06T02:10:29.745Z,29.43
2019-02-06T02:12:58.698Z,32.83
2019-02-06T02:15:27.785Z,37.47
2019-02-06T02:18:16.466Z,34.53
2019-02-06T02:20:45.486Z,31.10
2019-02-06T02:23:14.509Z,45.03
2019-02-06T02:25:43.861Z,26.20
2019-02-06T02:28:13.666Z,42.20
2019-02-06T02:30:46.313Z,32.40
2019-02-06T02:33:15.421Z,38.70
2019-02-06T02:35:44.424Z,35.63
2019-02-06T02:38:13.433Z,30.97
2019-02-06T02:40:42.445Z,34.87
2019-02-06T02:43:11.821Z,37.27
2019-02-06T02:45:40.929Z,29.77
2019-02-06T02:48:10.133Z,40.23
2019-02-06T02:50:39.069Z,26.57
2019-02-06T02:53:08.064Z,39.23
2019-02-06T02:55:37.077Z,40.80
2019-02-06T02:58:07.804Z,28.90
2019-02-06T03:01:05.493Z,32.07
2019-02-06T03:04:02.537Z,35.77
2019-02-06T03:06:31.544Z,31.43
2019-02-06T03:09:00.566Z,27.90
2019-02-06T03:11:29.834Z,37.23
2019-02-06T03:13:58.759Z,38.17
2019-02-06T03:16:27.672Z,35.13
2019-02-06T03:18:56.640Z,30.80
2019-02-06T03:21:25.538Z,36.30
2019-02-06T03:23:55.021Z,31.83
2019-02-06T03:26:23.997Z,29.80
2019-02-06T03:28:52.905Z,42.07
2019-02-06T03:31:21.818Z,26.97
2019-02-06T03:33:50.784Z,32.03
2019-02-06T03:36:19.769Z,54.13
2019-02-06T03:38:48.668Z,23.37
2019-02-06T03:41:17.636Z,25.60
2019-02-06T03:43:46.979Z,39.10
2019-02-06T03:46:16.219Z,30.70
2019-02-06T03:48:45.387Z,24.97
2019-02-06T03:51:14.360Z,34.23
2019-02-06T03:53:43.335Z,28.10
2019-02-06T03:56:12.252Z,26.27
2019-02-06T03:58:41.165Z,26.43
2019-02-06T04:01:11.541Z,28.83
2019-02-06T04:03:40.653Z,30.87
2019-02-06T04:06:09.622Z,34.33
2019-02-06T04:08:38.512Z,27.13
2019-02-06T04:11:07.474Z,23.27
2019-02-06T04:13:36.456Z,26.37
2019-02-06T04:16:05.424Z,23.03
2019-02-06T04:18:34.400Z,21.20
2019-02-06T04:21:03.380Z,24.93
2019-02-06T04:23:32.637Z,31.53
2019-02-06T04:26:01.612Z,33.23
2019-02-06T04:28:30.497Z,23.77
2019-02-06T04:30:59.729Z,18.17
2019-02-06T04:33:28.900Z,19.20
2019-02-06T04:35:58.001Z,24.93
2019-02-06T04:38:26.905Z,20.47
2019-02-06T04:40:55.880Z,17.80
2019-02-06T04:43:24.717Z,21.57
2019-02-06T04:45:53.609Z,16.53
2019-02-06T04:48:22.651Z,24.90
2019-02-06T04:50:51.993Z,21.53
2019-02-06T04:53:20.896Z,17.67
2019-02-06T04:55:49.792Z,17.80
2019-02-06T04:58:18.696Z,16.80
2019-02-06T05:00:47.684Z,19.20
2019-02-06T05:03:16.593Z,17.83
2019-02-06T05:05:45.487Z,22.33
2019-02-06T05:08:14.384Z,19.30
2019-02-06T05:10:43.352Z,18.17
2019-02-06T05:13:12.616Z,19.80
2019-02-06T05:15:41.552Z,17.80
2019-02-06T05:18:10.520Z,16.60
2019-02-06T05:20:40.649Z,17.33
2019-02-06T05:23:10.411Z,21.50
2019-02-06T05:25:39.391Z,12.83
2019-02-06T05:28:08.467Z,18.17
2019-02-06T05:30:37.375Z,13.80
2019-02-06T05:33:06.572Z,17.23
2019-02-06T05:35:35.571Z,12.30
2019-02-06T05:38:04.997Z,18.20
2019-02-06T05:40:33.989Z,16.77
2019-02-06T05:43:03.237Z,14.63
2019-02-06T05:45:32.212Z,16.93
2019-02-06T05:48:01.108Z,13.20
2019-02-06T05:50:30.093Z,17.57
2019-02-06T05:52:59.060Z,20.87
2019-02-06T05:55:28.307Z,15.07
2019-02-06T05:57:57.196Z,22.93
2019-02-06T06:00:40.904Z,16.03
2019-02-06T06:03:09.873Z,13.10
2019-02-06T06:05:58.272Z,15.07
2019-02-06T06:08:27.251Z,17.50
2019-02-06T06:10:56.181Z,21.93
2019-02-06T06:13:24.990Z,13.83
2019-02-06T06:15:53.962Z,15.37
2019-02-06T06:18:23.540Z,21.87
2019-02-06T06:20:52.725Z,18.03
2019-02-06T06:23:22.006Z,26.63
2019-02-06T06:25:51.049Z,14.00
2019-02-06T06:28:19.993Z,17.73
2019-02-06T06:30:48.903Z,18.27
2019-02-06T06:33:17.914Z,17.40
2019-02-06T06:35:46.823Z,18.90
2019-02-06T06:38:15.717Z,17.23
2019-02-06T06:40:44.958Z,21.23
2019-02-06T06:43:16.220Z,20.43
2019-02-06T06:45:44.600Z,17.33
2019-02-06T06:48:13.513Z,21.70
2019-02-06T06:50:42.466Z,25.70
2019-02-06T06:53:11.364Z,18.23
2019-02-06T06:55:40.556Z,16.90
2019-02-06T06:58:09.536Z,15.83
2019-02-06T07:00:38.537Z,18.90
2019-02-06T07:03:07.772Z,21.13
2019-02-06T07:05:36.676Z,18.87
2019-02-06T07:08:10.131Z,38.73
2019-02-06T07:10:36.648Z,15.23
2019-02-06T07:13:05.674Z,14.33
2019-02-06T07:15:35.214Z,17.83
2019-02-06T07:18:04.541Z,13.37
2019-02-06T07:20:33.512Z,18.10
2019-02-06T07:23:02.935Z,24.10
2019-02-06T07:25:31.940Z,29.10
2019-02-06T07:28:01.040Z,14.97
2019-02-06T07:30:32.067Z,14.80
2019-02-06T07:33:01.249Z,15.33
2019-02-06T07:35:30.166Z,13.00
2019-02-06T07:37:59.616Z,13.10
2019-02-06T07:40:28.688Z,14.90
2019-02-06T07:42:57.589Z,18.50
2019-02-06T07:45:26.750Z,14.77
2019-02-06T07:47:55.652Z,13.87
2019-02-06T07:50:29.531Z,15.67
2019-02-06T07:52:59.238Z,18.80
2019-02-06T07:55:28.275Z,20.70
2019-02-06T07:57:57.329Z,27.50
2019-02-06T08:00:26.566Z,21.33
2019-02-06T08:02:55.831Z,14.47
2019-02-06T08:05:24.808Z,11.90
2019-02-06T08:07:54.577Z,16.73
2019-02-06T08:10:28.744Z,17.27
2019-02-06T08:12:57.724Z,15.03
2019-02-06T08:15:26.694Z,16.43
2019-02-06T08:17:55.601Z,17.97
2019-02-06T08:20:43.701Z,14.60
2019-02-06T08:23:12.668Z,11.73
2019-02-06T08:25:41.488Z,15.97
2019-02-06T08:28:10.460Z,11.40
2019-02-06T08:30:40.744Z,15.60
2019-02-06T08:33:09.756Z,12.43
2019-02-06T08:35:38.760Z,17.90
2019-02-06T08:38:07.748Z,18.90
2019-02-06T08:40:36.712Z,13.73
2019-02-06T08:43:05.793Z,17.30
2019-02-06T08:45:34.799Z,22.90
2019-02-06T08:48:03.840Z,15.40
2019-02-06T08:50:33.060Z,16.23
2019-02-06T08:53:02.034Z,14.37
2019-02-06T08:55:31.548Z,21.63
2019-02-06T08:58:01.277Z,19.63
2019-02-06T09:00:38.176Z,18.20
2019-02-06T09:03:08.720Z,21.03
2019-02-06T09:05:38.019Z,23.37
2019-02-06T09:08:07.351Z,17.20
2019-02-06T09:10:36.521Z,19.20
2019-02-06T09:13:06.012Z,19.20
2019-02-06T09:15:35.188Z,17.33
2019-02-06T09:18:06.811Z,17.97
2019-02-06T09:20:35.692Z,16.00
2019-02-06T09:23:05.001Z,13.73
2019-02-06T09:25:33.984Z,13.90
2019-02-06T09:28:02.953Z,16.10
2019-02-06T09:30:32.959Z,16.20
2019-02-06T09:33:02.132Z,11.73
2019-02-06T09:35:31.112Z,17.20
2019-02-06T09:38:00.190Z,13.97
2019-02-06T09:40:30.356Z,12.80
2019-02-06T09:42:59.440Z,12.93
2019-02-06T09:45:28.825Z,14.50
2019-02-06T09:47:57.791Z,13.73
2019-02-06T09:50:34.596Z,17.70
2019-02-06T09:53:03.502Z,17.07
2019-02-06T09:55:32.468Z,14.53
2019-02-06T09:58:01.455Z,15.40
2019-02-06T10:00:35.964Z,13.00
2019-02-06T10:03:06.193Z,15.77
2019-02-06T10:05:35.146Z,11.30
2019-02-06T10:08:04.830Z,16.70
2019-02-06T10:10:33.801Z,15.40
2019-02-06T10:13:03.619Z,17.67
2019-02-06T10:15:34.468Z,16.47
2019-02-06T10:18:04.413Z,14.30
2019-02-06T10:20:45.392Z,20.33
2019-02-06T10:23:14.777Z,19.37
2019-02-06T10:25:43.748Z,22.20
2019-02-06T10:28:12.952Z,17.57
2019-02-06T10:30:52.708Z,26.67
2019-02-06T10:33:21.885Z,18.33
2019-02-06T10:35:52.166Z,21.17
2019-02-06T10:38:21.807Z,22.47
2019-02-06T10:40:50.701Z,18.90
2019-02-06T10:43:31.255Z,17.77
2019-02-06T10:45:50.978Z,14.00
2019-02-06T10:48:20.248Z,17.30
2019-02-06T10:50:51.449Z,23.37
2019-02-06T10:53:20.509Z,16.03
2019-02-06T10:55:49.472Z,21.43
2019-02-06T10:58:18.857Z,18.80
2019-02-06T11:00:50.508Z,23.83
2019-02-06T11:03:19.485Z,27.80
2019-02-06T11:05:48.533Z,18.83
2019-02-06T11:08:17.717Z,23.43
2019-02-06T11:10:46.689Z,23.23
2019-02-06T11:13:15.973Z,19.80
2019-02-06T11:15:44.940Z,24.63
2019-02-06T11:18:13.844Z,22.80
2019-02-06T11:20:42.816Z,25.20
2019-02-06T11:23:11.801Z,25.33
2019-02-06T11:25:40.778Z,23.77
2019-02-06T11:28:09.756Z,25.20
2019-02-06T11:30:38.957Z,26.93
2019-02-06T11:33:08.472Z,25.30
2019-02-06T11:35:37.480Z,24.00
2019-02-06T11:38:07.277Z,29.07
2019-02-06T11:40:36.465Z,29.13
2019-02-06T11:43:06.333Z,32.23
2019-02-06T11:45:35.730Z,27.73
2019-02-06T11:48:05.333Z,28.23
2019-02-06T11:50:37.981Z,30.93
2019-02-06T11:53:08.983Z,29.70
2019-02-06T11:55:37.992Z,31.07
2019-02-06T11:58:07.509Z,31.20
2019-02-06T12:00:48.553Z,29.20
2019-02-06T12:03:17.866Z,34.33
2019-02-06T12:05:47.536Z,31.50
2019-02-06T12:08:16.433Z,36.83
2019-02-06T12:10:45.807Z,33.70
2019-02-06T12:13:14.772Z,29.60
2019-02-06T12:15:43.708Z,30.47
2019-02-06T12:18:12.685Z,34.33
2019-02-06T12:20:41.668Z,31.97
2019-02-06T12:23:10.631Z,33.47
2019-02-06T12:25:39.608Z,42.33
2019-02-06T12:28:08.758Z,29.07
2019-02-06T12:30:38.221Z,33.57
2019-02-06T12:33:07.493Z,39.03
2019-02-06T12:35:36.540Z,36.13
2019-02-06T12:38:05.822Z,31.17
2019-02-06T12:40:34.818Z,28.40
2019-02-06T12:43:04.644Z,33.30
2019-02-06T12:45:34.007Z,29.27
2019-02-06T12:48:02.967Z,32.67
2019-02-06T12:50:31.942Z,32.87
2019-02-06T12:53:00.757Z,35.10
2019-02-06T12:55:32.038Z,31.50
2019-02-06T12:58:01.007Z,34.83
2019-02-06T13:00:31.532Z,37.80
2019-02-06T13:03:00.532Z,39.03
2019-02-06T13:05:30.167Z,34.53
2019-02-06T13:07:59.456Z,34.60
2019-02-06T13:10:33.864Z,29.17
2019-02-06T13:12:59.048Z,38.27
2019-02-06T13:15:27.945Z,37.23
2019-02-06T13:17:57.083Z,37.50
2019-02-06T13:20:27.904Z,37.40
2019-02-06T13:22:56.993Z,47.90
2019-02-06T13:25:26.171Z,43.00
2019-02-06T13:27:55.136Z,36.37
2019-02-06T13:30:29.484Z,44.20
2019-02-06T13:32:58.461Z,38.97
2019-02-06T13:35:27.389Z,48.53
2019-02-06T13:37:56.332Z,48.90
2019-02-06T13:40:26.194Z,43.77
2019-02-06T13:42:55.057Z,41.63
2019-02-06T13:45:26.452Z,37.53
2019-02-06T13:47:55.676Z,39.33
2019-02-06T13:50:25.120Z,47.63
2019-02-06T13:52:54.124Z,48.30
2019-02-06T13:55:23.029Z,41.30
2019-02-06T13:57:52.004Z,45.13
2019-02-06T14:00:23.041Z,43.50
2019-02-06T14:02:52.029Z,46.60
2019-02-06T14:05:24.660Z,48.70
2019-02-06T14:07:55.460Z,40.80
2019-02-06T14:10:24.977Z,52.67
2019-02-06T14:12:54.450Z,48.97
2019-02-06T14:15:24.580Z,45.63
2019-02-06T14:17:53.648Z,49.63
2019-02-06T14:20:22.928Z,45.83
2019-02-06T14:22:55.453Z,37.40
2019-02-06T14:25:37.337Z,45.43
2019-02-06T14:28:25.044Z,55.07
2019-02-06T14:31:06.860Z,40.87
2019-02-06T14:34:16.145Z,41.70
2019-02-06T14:37:30.668Z,39.27
2019-02-06T14:40:08.565Z,40.20
2019-02-06T14:43:26.908Z,44.70
2019-02-06T14:46:36.973Z,42.57
2019-02-06T14:49:58.761Z,44.47
2019-02-06T14:53:01.823Z,39.80
2019-02-06T14:55:40.740Z,42.43
2019-02-06T14:58:42.572Z,47.53
2019-02-06T15:01:20.830Z,45.67
2019-02-06T15:04:25.885Z,55.33
2019-02-06T15:07:18.169Z,51.27
2019-02-06T15:10:27.436Z,37.83
2019-02-06T15:13:23.676Z,33.00
2019-02-06T15:16:30.925Z,40.20
2019-02-06T15:19:23.009Z,38.00
2019-02-06T15:22:08.448Z,29.60
2019-02-06T15:25:06.496Z,49.87
2019-02-06T15:28:20.392Z,32.57
2019-02-06T15:31:14.979Z,37.20
2019-02-06T15:34:16.545Z,44.47
2019-02-06T15:37:42.447Z,37.77
2019-02-06T15:40:43.666Z,40.30
2019-02-06T15:44:02.596Z,35.97
2019-02-06T15:47:10.809Z,44.30
2019-02-06T15:50:26.525Z,51.23
2019-02-06T15:52:57.596Z,44.30
2019-02-06T15:56:00.624Z,46.77
2019-02-06T15:59:17.124Z,47.57
2019-02-06T16:02:30.393Z,51.77
2019-02-06T16:05:39.284Z,49.70
2019-02-06T16:08:42.324Z,45.97
2019-02-06T16:11:41.635Z,50.97
2019-02-06T16:14:49.162Z,39.90
2019-02-06T16:17:48.513Z,45.43
2019-02-06T16:20:59.724Z,56.50
2019-02-06T16:24:21.963Z,47.20
2019-02-06T16:27:28.030Z,53.07
2019-02-06T16:30:35.944Z,51.30
2019-02-06T16:33:29.004Z,46.57
2019-02-06T16:36:48.060Z,40.20
2019-02-06T16:39:29.969Z,53.13
2019-02-06T16:42:24.916Z,44.03
2019-02-06T16:45:35.400Z,45.13
2019-02-06T16:48:33.118Z,43.37
2019-02-06T16:51:25.504Z,51.53
2019-02-06T16:54:11.392Z,51.20
2019-02-06T16:57:13.085Z,41.13
2019-02-06T17:00:17.580Z,43.30
2019-02-06T17:03:17.184Z,52.43
2019-02-06T17:06:32.442Z,38.70
2019-02-06T17:09:34.004Z,43.33
2019-02-06T17:12:16.216Z,43.77
2019-02-06T17:15:38.805Z,47.33
2019-02-06T17:18:45.073Z,46.53
2019-02-06T17:21:47.206Z,52.93
2019-02-06T17:25:06.332Z,54.63
2019-02-06T17:28:07.340Z,58.90
2019-02-06T17:31:19.049Z,49.03
2019-02-06T17:34:10.973Z,50.80
2019-02-06T17:37:28.059Z,49.97
2019-02-06T17:40:37.162Z,72.80
2019-02-06T17:43:43.364Z,50.03
2019-02-06T17:46:34.348Z,44.70
2019-02-06T17:49:40.348Z,46.07
2019-02-06T17:53:15.314Z,93.93
2019-02-06T17:56:03.624Z,43.47
2019-02-06T17:58:36.592Z,116.20
2019-02-06T18:01:13.301Z,50.00
2019-02-06T18:03:49.008Z,53.00
2019-02-06T18:06:18.073Z,56.07
2019-02-06T18:08:56.329Z,53.80
2019-02-06T18:11:17.948Z,58.73
2019-02-06T18:13:47.246Z,61.63
2019-02-06T18:16:21.354Z,99.57
2019-02-06T18:18:47.013Z,65.77
2019-02-06T18:21:15.984Z,60.07
2019-02-06T18:23:44.916Z,59.20
2019-02-06T18:26:14.043Z,55.40
2019-02-06T18:28:43.089Z,50.13
2019-02-06T18:31:13.744Z,44.43
2019-02-06T18:33:43.263Z,67.43
2019-02-06T18:36:12.756Z,55.23
2019-02-06T18:38:46.686Z,101.83
2019-02-06T18:41:14.579Z,60.33
2019-02-06T18:43:44.812Z,68.20
2019-02-06T18:46:15.100Z,58.57
2019-02-06T18:48:44.149Z,74.37
2019-02-06T18:51:13.712Z,58.23
2019-02-06T18:53:43.249Z,82.23
2019-02-06T18:56:12.500Z,66.23
2019-02-06T18:58:42.141Z,62.27
2019-02-06T19:01:12.304Z,58.50
2019-02-06T19:03:45.230Z,58.60
2019-02-06T19:06:15.296Z,47.70
2019-02-06T19:08:47.293Z,60.27
2019-02-06T19:11:17.241Z,54.87
2019-02-06T19:13:46.380Z,52.10
2019-02-06T19:16:15.515Z,62.70
2019-02-06T19:18:45.488Z,63.70
2019-02-06T19:21:15.257Z,76.20
2019-02-06T19:23:45.108Z,55.27
2019-02-06T19:26:15.213Z,59.10
2019-02-06T19:28:47.795Z,58.27
2019-02-06T19:31:38.631Z,65.60
2019-02-06T19:34:10.301Z,50.83
2019-02-06T19:36:39.956Z,57.00
2019-02-06T19:39:12.151Z,60.43
2019-02-06T19:41:43.640Z,59.93
2019-02-06T19:44:15.340Z,48.73
2019-02-06T19:46:48.786Z,42.67
2019-02-06T19:49:21.439Z,46.77
2019-02-06T19:51:53.248Z,44.63
2019-02-06T19:54:23.788Z,47.73
2019-02-06T19:56:54.108Z,46.87
2019-02-06T19:59:24.329Z,43.77
2019-02-06T20:01:55.047Z,39.47
2019-02-06T20:04:25.142Z,61.90
2019-02-06T20:06:56.368Z,46.17
2019-02-06T20:09:26.765Z,42.60
2019-02-06T20:11:58.784Z,43.73
2019-02-06T20:14:29.878Z,51.43
2019-02-06T20:17:00.552Z,39.60
2019-02-06T20:19:31.408Z,47.77
2019-02-06T20:22:03.485Z,51.07
2019-02-06T20:24:34.532Z,55.57
2019-02-06T20:27:04.494Z,93.40
2019-02-06T20:29:34.436Z,54.97
2019-02-06T20:32:06.860Z,48.73
2019-02-06T20:34:38.512Z,79.53
2019-02-06T20:37:08.884Z,71.47
2019-02-06T20:39:39.740Z,72.80
2019-02-06T20:42:11.999Z,42.43
2019-02-06T20:44:43.616Z,36.23
2019-02-06T20:47:14.836Z,39.33
2019-02-06T20:50:04.749Z,39.33
2019-02-06T20:52:35.599Z,39.53
2019-02-06T20:55:06.500Z,37.63
2019-02-06T20:57:38.090Z,36.40
2019-02-06T21:00:12.780Z,37.60
2019-02-06T21:02:43.436Z,36.70
2019-02-06T21:05:14.346Z,36.73
2019-02-06T21:08:05.105Z,38.80
2019-02-06T21:10:56.030Z,38.53
2019-02-06T21:13:33.093Z,39.17
2019-02-06T21:16:00.459Z,45.07
2019-02-06T21:18:29.974Z,37.60
2019-02-06T21:20:58.917Z,37.33
2019-02-06T21:23:28.468Z,36.77
2019-02-06T21:25:57.488Z,35.17
2019-02-06T21:28:26.556Z,36.70
2019-02-06T21:30:55.540Z,46.97
2019-02-06T21:33:24.828Z,46.80
2019-02-06T21:35:54.355Z,43.60
2019-02-06T21:38:23.624Z,49.50
2019-02-06T21:40:52.597Z,43.37
2019-02-06T21:43:21.448Z,43.13
2019-02-06T21:45:50.488Z,45.47
2019-02-06T21:48:22.279Z,44.27
2019-02-06T21:50:51.127Z,48.43
2019-02-06T21:53:19.964Z,50.13
2019-02-06T21:55:48.928Z,55.17
2019-02-06T21:58:17.909Z,58.07
2019-02-06T22:00:46.877Z,42.07
2019-02-06T22:03:15.958Z,41.17
2019-02-06T22:05:45.129Z,37.73
2019-02-06T22:08:14.033Z,38.63
2019-02-06T22:10:43.000Z,44.13
2019-02-06T22:13:12.280Z,52.63
2019-02-06T22:15:41.104Z,54.77
2019-02-06T22:18:10.576Z,48.00
2019-02-06T22:20:39.468Z,40.27
2019-02-06T22:23:08.380Z,41.03
2019-02-06T22:25:37.268Z,47.43
2019-02-06T22:28:06.257Z,37.73
2019-02-06T22:30:35.230Z,53.90
2019-02-06T22:33:04.846Z,43.93
2019-02-06T22:35:33.891Z,47.97
2019-02-06T22:38:02.948Z,48.00
2019-02-06T22:40:31.920Z,46.00
2019-02-06T22:43:00.736Z,43.33
2019-02-06T22:45:29.733Z,47.57
2019-02-06T22:47:59.021Z,45.07
2019-02-06T22:50:28.495Z,41.07
2019-02-06T22:52:58.251Z,46.43
2019-02-06T22:55:27.292Z,40.63
2019-02-06T22:57:56.587Z,38.73
2019-02-06T23:00:49.932Z,32.13
2019-02-06T23:03:34.375Z,43.60
2019-02-06T23:06:03.669Z,45.33
2019-02-06T23:08:32.686Z,33.47
2019-02-06T23:11:01.924Z,37.43
2019-02-06T23:13:31.005Z,36.83
2019-02-06T23:16:00.103Z,37.60
2019-02-06T23:18:29.308Z,45.77
2019-02-06T23:20:58.292Z,32.87
2019-02-06T23:23:27.107Z,28.73
2019-02-06T23:25:56.368Z,29.57
2019-02-06T23:28:25.198Z,32.50
2019-02-06T23:30:54.028Z,34.53
2019-02-06T23:33:22.928Z,31.63
2019-02-06T23:35:51.902Z,33.67
2019-02-06T23:38:20.876Z,30.60
2019-02-06T23:40:50.165Z,29.23
2019-02-06T23:43:19.146Z,37.40
2019-02-06T23:45:48.129Z,31.67
2019-02-06T23:48:17.032Z,34.80
2019-02-06T23:50:45.872Z,32.43
2019-02-06T23:53:14.705Z,42.57
2019-02-06T23:55:43.989Z,34.57
2019-02-06T23:58:13.088Z,40.13
